createdAt,value
2019-04-16T00:14:43.666Z,3.00
2019-04-16T00:17:35.573Z,3.00
2019-04-16T00:23:23.234Z,3.10
2019-04-16T00:26:05.487Z,3.10
2019-04-16T00:28:36.061Z,3.00
2019-04-16T00:37:45.922Z,2.90
2019-04-16T00:40:30.097Z,3.00
2019-04-16T00:45:52.819Z,3.00
2019-04-16T00:48:23.394Z,3.00
2019-04-16T00:51:13.449Z,3.00
2019-04-16T00:54:09.709Z,3.10
2019-04-16T00:56:56.334Z,3.10
2019-04-16T01:02:35.897Z,3.10
2019-04-16T01:08:31.065Z,3.10
2019-04-16T01:11:15.161Z,3.20
2019-04-16T01:13:57.721Z,3.20
2019-04-16T01:16:40.055Z,3.30
2019-04-16T01:19:21.853Z,3.30
2019-04-16T01:22:04.454Z,3.40
2019-04-16T01:24:51.676Z,3.40
2019-04-16T01:27:36.941Z,3.50
2019-04-16T01:33:43.482Z,3.50
2019-04-16T01:36:46.646Z,3.40
2019-04-16T01:39:29.605Z,3.40
2019-04-16T01:42:12.225Z,3.40
2019-04-16T01:44:54.405Z,3.30
2019-04-16T01:47:37.305Z,3.20
2019-04-16T01:50:19.857Z,3.10
2019-04-16T01:53:02.448Z,3.10
2019-04-16T01:55:51.030Z,3.00
2019-04-16T01:58:23.169Z,3.00
2019-04-16T02:07:09.385Z,3.00
2019-04-16T02:09:39.982Z,3.00
2019-04-16T02:12:13.496Z,3.00
2019-04-16T02:20:44.496Z,2.90
2019-04-16T02:26:35.084Z,3.00
2019-04-16T02:29:17.029Z,3.10
2019-04-16T02:31:59.350Z,3.10
2019-04-16T02:34:42.160Z,3.00
2019-04-16T02:37:24.282Z,3.00
2019-04-16T02:40:07.013Z,3.00
2019-04-16T02:42:49.372Z,3.00
2019-04-16T02:45:32.136Z,2.90
2019-04-16T02:48:17.019Z,2.90
2019-04-16T02:51:07.388Z,2.90
2019-04-16T02:54:13.222Z,2.90
2019-04-16T02:57:16.039Z,2.90
2019-04-16T02:59:59.101Z,2.80
2019-04-16T03:06:15.433Z,2.90
2019-04-16T03:08:57.913Z,3.00
2019-04-16T03:11:40.234Z,3.00
2019-04-16T03:14:22.517Z,3.10
2019-04-16T03:17:24.064Z,3.10
2019-04-16T03:23:18.110Z,3.10
2019-04-16T03:26:00.436Z,3.10
2019-04-16T03:28:42.742Z,3.10
2019-04-16T03:31:24.118Z,3.10
2019-04-16T03:34:06.538Z,3.10
2019-04-16T03:36:48.526Z,3.10
2019-04-16T03:39:30.375Z,2.90
2019-04-16T03:42:13.463Z,3.00
2019-04-16T03:44:44.050Z,3.00
2019-04-16T03:47:33.691Z,3.10
2019-04-16T03:53:24.917Z,3.30
2019-04-16T03:56:07.486Z,3.30
2019-04-16T03:58:50.390Z,3.30
2019-04-16T04:01:32.437Z,3.30
2019-04-16T04:04:15.102Z,3.30
2019-04-16T04:06:57.534Z,3.40
2019-04-16T04:09:40.337Z,3.30
2019-04-16T04:15:07.142Z,3.40
2019-04-16T04:20:34.315Z,3.40
2019-04-16T04:23:16.704Z,3.40
2019-04-16T04:25:47.282Z,3.40
2019-04-16T04:31:38.933Z,3.40
2019-04-16T04:34:20.873Z,3.40
2019-04-16T04:37:02.994Z,3.40
2019-04-16T04:39:45.668Z,3.40
2019-04-16T04:42:28.389Z,3.50
2019-04-16T04:44:59.533Z,3.50
2019-04-16T04:47:51.618Z,3.60
2019-04-16T04:50:52.757Z,3.60
2019-04-16T04:53:23.616Z,3.60
2019-04-16T05:02:14.344Z,3.60
2019-04-16T05:08:13.838Z,3.60
2019-04-16T05:10:59.932Z,3.70
2019-04-16T05:13:40.759Z,3.80
2019-04-16T05:16:22.782Z,3.80
2019-04-16T05:22:11.595Z,3.80
2019-04-16T05:25:00.890Z,3.90
2019-04-16T05:27:58.134Z,4.00
2019-04-16T05:30:40.626Z,4.00
2019-04-16T05:33:23.076Z,4.00
2019-04-16T05:36:31.754Z,4.10
2019-04-16T05:39:14.107Z,4.20
2019-04-16T05:44:33.180Z,4.30
2019-04-16T05:56:38.430Z,4.50
2019-04-16T05:59:20.894Z,4.40
2019-04-16T06:02:03.427Z,4.40
2019-04-16T06:04:36.710Z,4.50
2019-04-16T06:10:27.474Z,4.60
2019-04-16T06:13:28.494Z,4.60
2019-04-16T06:23:03.764Z,4.80
2019-04-16T06:25:50.978Z,4.90
2019-04-16T06:28:55.955Z,5.00
2019-04-16T06:31:40.081Z,5.10
2019-04-16T06:34:34.485Z,5.20
2019-04-16T06:37:35.846Z,5.20
2019-04-16T06:40:44.578Z,5.40
2019-04-16T06:43:28.502Z,5.50
2019-04-16T06:46:30.021Z,5.60
2019-04-16T06:49:34.638Z,5.70
2019-04-16T06:52:55.398Z,5.60
2019-04-16T06:55:39.454Z,5.60
2019-04-16T07:01:48.365Z,6.00
2019-04-16T07:04:38.239Z,6.10
2019-04-16T07:10:57.637Z,6.20
2019-04-16T07:13:42.354Z,6.30
2019-04-16T07:16:28.148Z,6.50
2019-04-16T07:19:11.295Z,6.70
2019-04-16T07:21:53.083Z,7.00
2019-04-16T07:24:30.118Z,7.60
2019-04-16T07:27:19.585Z,8.50
2019-04-16T07:30:21.049Z,9.40
2019-04-16T07:36:09.327Z,11.90
2019-04-16T07:39:13.523Z,13.50
2019-04-16T07:45:23.250Z,15.30
2019-04-16T07:48:15.063Z,16.30
2019-04-16T07:51:46.287Z,17.00
2019-04-16T07:54:54.884Z,17.50
2019-04-16T07:57:38.346Z,17.70
2019-04-16T08:00:21.443Z,18.40
2019-04-16T08:03:03.311Z,18.60
2019-04-16T08:05:46.031Z,19.00
2019-04-16T08:08:28.683Z,18.50
2019-04-16T08:11:11.845Z,18.60
2019-04-16T08:16:47.264Z,19.20
2019-04-16T08:22:22.584Z,19.20
2019-04-16T08:25:05.341Z,18.30
2019-04-16T08:27:50.565Z,17.40
2019-04-16T08:30:34.215Z,17.30
2019-04-16T08:33:15.802Z,17.70
2019-04-16T08:35:58.969Z,17.80
2019-04-16T08:38:34.068Z,17.70
2019-04-16T08:44:25.168Z,17.10
2019-04-16T08:46:59.057Z,17.40
2019-04-16T08:49:30.454Z,17.80
2019-04-16T08:52:20.539Z,18.30
2019-04-16T08:58:15.646Z,18.10
2019-04-16T09:00:59.278Z,18.50
2019-04-16T09:03:30.766Z,18.50
2019-04-16T09:09:43.454Z,17.70
2019-04-16T09:12:26.053Z,17.70
2019-04-16T09:15:09.596Z,17.90
2019-04-16T09:20:52.578Z,18.50
2019-04-16T09:23:35.375Z,17.60
2019-04-16T09:26:28.087Z,17.40
2019-04-16T09:29:39.052Z,17.10
2019-04-16T09:32:47.082Z,16.40
2019-04-16T09:35:22.634Z,16.10
2019-04-16T09:38:31.490Z,15.60
2019-04-16T09:41:17.209Z,14.90
2019-04-16T09:44:00.467Z,14.80
2019-04-16T09:46:51.884Z,14.70
2019-04-16T09:49:26.717Z,14.40
2019-04-16T09:52:09.518Z,13.90
2019-04-16T09:54:51.641Z,13.70
2019-04-16T09:57:24.380Z,13.60
2019-04-16T10:03:39.312Z,13.40
2019-04-16T10:06:21.663Z,13.30
2019-04-16T10:09:03.433Z,13.20
2019-04-16T10:11:45.499Z,13.10
2019-04-16T10:14:27.654Z,13.10
2019-04-16T10:17:10.399Z,12.90
2019-04-16T10:19:52.495Z,12.70
2019-04-16T10:22:23.736Z,12.20
2019-04-16T10:28:26.741Z,12.40
2019-04-16T10:31:28.361Z,12.70
2019-04-16T10:34:10.935Z,12.60
2019-04-16T10:36:56.054Z,12.90
2019-04-16T10:39:44.177Z,13.50
2019-04-16T10:48:50.615Z,12.30
2019-04-16T10:51:43.023Z,11.70
2019-04-16T10:54:44.650Z,11.50
2019-04-16T11:01:02.511Z,11.80
2019-04-16T11:04:07.868Z,12.60
2019-04-16T11:10:13.676Z,12.80
2019-04-16T11:12:56.645Z,12.20
2019-04-16T11:15:39.408Z,11.60
2019-04-16T11:18:21.908Z,11.30
2019-04-16T11:21:05.209Z,11.30
2019-04-16T11:23:47.609Z,11.40
2019-04-16T11:26:30.209Z,11.30
2019-04-16T11:29:12.339Z,11.30
2019-04-16T11:31:54.737Z,11.30
2019-04-16T11:34:36.927Z,11.50
2019-04-16T11:37:19.513Z,11.60
2019-04-16T11:40:02.099Z,11.90
2019-04-16T11:42:46.037Z,12.00
2019-04-16T11:45:28.650Z,11.90
2019-04-16T11:48:11.299Z,11.90
2019-04-16T11:50:53.946Z,12.10
2019-04-16T11:53:36.394Z,12.40
2019-04-16T11:56:22.288Z,12.40
2019-04-16T11:59:03.098Z,12.70
2019-04-16T12:02:05.526Z,12.90
2019-04-16T12:04:59.114Z,12.90
2019-04-16T12:08:05.566Z,13.00
2019-04-16T12:17:20.052Z,12.80
2019-04-16T12:23:38.206Z,12.70
2019-04-16T12:26:39.872Z,12.50
2019-04-16T12:29:41.992Z,12.40
2019-04-16T12:36:16.038Z,12.10
2019-04-16T12:39:18.379Z,12.00
2019-04-16T12:42:41.186Z,12.20
2019-04-16T12:45:42.570Z,12.60
2019-04-16T12:51:50.546Z,13.00
2019-04-16T12:54:59.242Z,13.00
2019-04-16T13:01:22.006Z,12.60
2019-04-16T13:04:22.857Z,12.40
2019-04-16T13:07:26.169Z,12.40
2019-04-16T13:10:46.347Z,12.50
2019-04-16T13:16:29.067Z,12.90
2019-04-16T13:19:30.396Z,13.00
2019-04-16T13:22:12.728Z,13.00
2019-04-16T13:28:29.589Z,13.00
2019-04-16T13:31:12.075Z,12.90
2019-04-16T13:33:54.359Z,12.60
2019-04-16T13:36:37.147Z,12.70
2019-04-16T13:42:18.752Z,13.00
2019-04-16T13:45:25.853Z,13.10
2019-04-16T13:48:15.859Z,12.90
2019-04-16T13:54:38.171Z,12.50
2019-04-16T13:57:29.310Z,12.50
2019-04-16T14:00:17.750Z,12.50
2019-04-16T14:03:20.808Z,12.40
2019-04-16T14:06:03.392Z,12.60
2019-04-16T14:08:46.054Z,12.80
2019-04-16T14:11:28.285Z,12.90
2019-04-16T14:14:10.805Z,12.70
2019-04-16T14:16:53.226Z,12.60
2019-04-16T14:19:38.042Z,12.40
2019-04-16T14:25:03.274Z,12.30
2019-04-16T14:27:45.407Z,12.40
2019-04-16T14:33:35.098Z,12.30
2019-04-16T14:42:29.411Z,12.50
2019-04-16T14:48:01.800Z,12.50
2019-04-16T14:50:46.028Z,12.40
2019-04-16T14:53:28.335Z,12.30
2019-04-16T14:56:18.893Z,12.20
2019-04-16T15:02:33.473Z,12.30
2019-04-16T15:08:43.416Z,12.10
2019-04-16T15:12:08.173Z,12.00
2019-04-16T15:19:02.754Z,11.90
2019-04-16T15:22:26.055Z,11.80
2019-04-16T15:28:22.282Z,11.60
2019-04-16T15:34:15.475Z,11.40
2019-04-16T15:40:11.383Z,11.60
2019-04-16T15:43:20.650Z,11.70
2019-04-16T15:46:49.484Z,11.70
2019-04-16T15:49:56.657Z,11.60
2019-04-16T15:53:04.843Z,11.60
2019-04-16T15:58:43.802Z,11.30
2019-04-16T16:07:08.162Z,11.30
2019-04-16T16:13:11.844Z,11.20
2019-04-16T16:15:53.639Z,11.10
2019-04-16T16:18:38.544Z,11.10
2019-04-16T16:21:19.468Z,11.10
2019-04-16T16:24:06.250Z,11.00
2019-04-16T16:26:45.688Z,10.90
2019-04-16T16:29:28.490Z,10.80
2019-04-16T16:32:11.527Z,10.90
2019-04-16T16:34:53.819Z,10.90
2019-04-16T16:37:36.801Z,11.00
2019-04-16T16:40:19.955Z,10.90
2019-04-16T16:46:03.463Z,10.80
2019-04-16T16:54:59.447Z,10.40
2019-04-16T17:01:14.049Z,10.10
2019-04-16T17:04:24.301Z,9.90
2019-04-16T17:07:09.657Z,9.80
2019-04-16T17:09:51.637Z,9.70
2019-04-16T17:15:13.557Z,9.60
2019-04-16T17:17:56.191Z,9.60
2019-04-16T17:20:26.995Z,9.60
2019-04-16T17:26:02.009Z,9.50
2019-04-16T17:31:48.409Z,9.40
2019-04-16T17:34:31.150Z,9.30
2019-04-16T17:37:13.488Z,9.30
2019-04-16T17:39:57.775Z,9.30
2019-04-16T17:42:31.280Z,9.10
2019-04-16T17:45:41.353Z,9.00
2019-04-16T17:48:51.402Z,8.90
2019-04-16T17:51:46.012Z,8.90
2019-04-16T17:54:35.563Z,8.80
2019-04-16T17:57:44.040Z,8.70
2019-04-16T18:00:46.486Z,8.70
2019-04-16T18:07:25.331Z,8.50
2019-04-16T18:10:33.737Z,8.40
2019-04-16T18:13:39.759Z,8.30
2019-04-16T18:16:54.327Z,8.20
2019-04-16T18:23:15.163Z,8.20
2019-04-16T18:26:37.190Z,8.20
2019-04-16T18:29:23.179Z,8.00
2019-04-16T18:32:27.620Z,8.00
2019-04-16T18:35:29.556Z,8.00
2019-04-16T18:38:19.040Z,8.00
2019-04-16T18:41:27.721Z,8.00
2019-04-16T18:44:47.302Z,8.00
2019-04-16T18:47:42.868Z,8.00
2019-04-16T18:50:28.405Z,7.90
2019-04-16T18:53:10.861Z,7.80
2019-04-16T18:55:52.971Z,7.60
2019-04-16T18:58:35.128Z,7.40
2019-04-16T19:04:20.936Z,7.40
2019-04-16T19:07:02.768Z,7.40
2019-04-16T19:12:53.502Z,7.50
2019-04-16T19:15:35.854Z,7.40
2019-04-16T19:18:20.222Z,7.30
2019-04-16T19:21:02.175Z,7.30
2019-04-16T19:23:44.828Z,7.10
2019-04-16T19:26:30.184Z,7.00
2019-04-16T19:29:14.380Z,6.90
2019-04-16T19:31:56.960Z,6.80
2019-04-16T19:34:41.152Z,6.70
2019-04-16T19:37:23.487Z,6.60
2019-04-16T19:40:05.404Z,6.50
2019-04-16T19:42:47.903Z,6.40
2019-04-16T19:45:30.809Z,6.20
2019-04-16T19:48:12.583Z,6.10
2019-04-16T19:50:55.361Z,6.00
2019-04-16T19:53:37.115Z,5.90
2019-04-16T19:56:19.644Z,5.70
2019-04-16T19:59:02.307Z,5.60
2019-04-16T20:01:45.006Z,5.50
2019-04-16T20:04:27.957Z,5.40
2019-04-16T20:07:10.341Z,5.30
2019-04-16T20:09:53.275Z,5.10
2019-04-16T20:12:35.063Z,5.00
2019-04-16T20:15:17.403Z,5.00
2019-04-16T20:17:47.936Z,4.90
2019-04-16T20:23:33.875Z,4.70
2019-04-16T20:28:56.706Z,4.60
2019-04-16T20:31:39.039Z,4.50
2019-04-16T20:34:21.722Z,4.50
2019-04-16T20:37:04.606Z,4.40
2019-04-16T20:39:47.153Z,4.40
2019-04-16T20:42:30.000Z,4.30
2019-04-16T20:45:12.640Z,4.20
2019-04-16T20:47:55.355Z,4.20
2019-04-16T20:50:37.143Z,4.20
2019-04-16T20:53:19.263Z,4.10
2019-04-16T20:56:01.898Z,4.10
2019-04-16T20:58:43.803Z,4.00
2019-04-16T21:01:15.414Z,4.00
2019-04-16T21:07:00.664Z,3.90
2019-04-16T21:12:26.858Z,3.80
2019-04-16T21:15:09.575Z,3.80
2019-04-16T21:17:51.795Z,3.70
2019-04-16T21:23:23.784Z,3.60
2019-04-16T21:26:05.813Z,3.60
2019-04-16T21:28:53.319Z,3.50
2019-04-16T21:31:42.300Z,3.40
2019-04-16T21:37:51.296Z,3.30
2019-04-16T21:40:33.343Z,3.20
2019-04-16T21:43:15.672Z,3.20
2019-04-16T21:45:57.500Z,3.20
2019-04-16T21:48:39.398Z,3.10
2019-04-16T21:51:24.246Z,3.00
2019-04-16T21:53:57.368Z,3.00
2019-04-16T22:03:09.005Z,2.90
2019-04-16T22:05:51.484Z,2.90
2019-04-16T22:08:33.555Z,2.80
2019-04-16T22:11:15.678Z,2.80
2019-04-16T22:13:57.594Z,2.70
2019-04-16T22:16:39.916Z,2.70
2019-04-16T22:19:21.864Z,2.60
2019-04-16T22:21:52.372Z,2.60
2019-04-16T22:24:41.854Z,2.50
2019-04-16T22:27:43.664Z,2.50
2019-04-16T22:30:25.407Z,2.30
2019-04-16T22:33:07.708Z,2.30
2019-04-16T22:35:49.992Z,2.30
2019-04-16T22:38:33.295Z,2.20
2019-04-16T22:47:44.779Z,2.10
2019-04-16T22:50:27.052Z,2.00
2019-04-16T22:53:08.898Z,1.90
2019-04-16T22:55:56.316Z,1.80
2019-04-16T23:01:36.552Z,1.70
2019-04-16T23:04:18.935Z,1.80
2019-04-16T23:07:01.475Z,1.80
2019-04-16T23:09:45.756Z,1.80
2019-04-16T23:12:28.364Z,1.80
2019-04-16T23:15:12.911Z,1.80
2019-04-16T23:17:54.525Z,1.70
2019-04-16T23:20:37.163Z,1.70
2019-04-16T23:23:19.657Z,1.70
2019-04-16T23:26:02.078Z,1.70
2019-04-16T23:28:44.734Z,1.50
2019-04-16T23:31:26.763Z,1.30
2019-04-16T23:33:57.485Z,1.20
2019-04-16T23:36:48.783Z,1.20
2019-04-16T23:39:51.016Z,1.20
2019-04-16T23:42:34.774Z,1.20
2019-04-16T23:48:59.335Z,1.20
2019-04-16T23:52:15.326Z,1.30
